sensor_id;sensor_type;location;lat;lon;timestamp;P1;durP1;ratioP1;P2;durP2;ratioP2
37341;SDS011;58643;49.052;8.518;2023-01-28T00:01:19;10.55;;;4.18;;
37341;SDS011;58643;49.052;8.518;2023-01-28T00:03:48;8.20;;;3.20;;
37341;SDS011;58643;49.052;8.518;2023-01-28T00:06:15;6.10;;;3.38;;
37341;SDS011;58643;49.052;8.518;2023-01-28T00:08:40;6.53;;;3.22;;
37341;SDS011;58643;49.052;8.518;2023-01-28T00:11:07;7.25;;;3.38;;
37341;SDS011;58643;49.052;8.518;2023-01-28T00:13:34;7.07;;;3.20;;
37341;SDS011;58643;49.052;8.518;2023-01-28T00:16:01;7.90;;;4.00;;
37341;SDS011;58643;49.052;8.518;2023-01-28T00:18:29;6.15;;;3.20;;
37341;SDS011;58643;49.052;8.518;2023-01-28T00:23:25;6.78;;;3.75;;
37341;SDS011;58643;49.052;8.518;2023-01-28T00:25:53;6.05;;;3.25;;
37341;SDS011;58643;49.052;8.518;2023-01-28T00:28:19;6.97;;;3.67;;
37341;SDS011;58643;49.052;8.518;2023-01-28T00:30:46;5.07;;;3.05;;
37341;SDS011;58643;49.052;8.518;2023-01-28T00:33:11;5.82;;;3.00;;
37341;SDS011;58643;49.052;8.518;2023-01-28T00:35:37;5.75;;;3.10;;
37341;SDS011;58643;49.052;8.518;2023-01-28T00:38:03;5.65;;;3.28;;
37341;SDS011;58643;49.052;8.518;2023-01-28T00:40:28;5.55;;;3.03;;
37341;SDS011;58643;49.052;8.518;2023-01-28T00:42:55;5.93;;;2.88;;
37341;SDS011;58643;49.052;8.518;2023-01-28T00:45:20;5.18;;;3.35;;
37341;SDS011;58643;49.052;8.518;2023-01-28T00:47:46;4.97;;;2.80;;
37341;SDS011;58643;49.052;8.518;2023-01-28T00:50:12;5.18;;;2.55;;
37341;SDS011;58643;49.052;8.518;2023-01-28T00:52:38;7.10;;;2.72;;
37341;SDS011;58643;49.052;8.518;2023-01-28T00:55:04;5.05;;;2.92;;
37341;SDS011;58643;49.052;8.518;2023-01-28T00:57:31;4.63;;;2.90;;
37341;SDS011;58643;49.052;8.518;2023-01-28T00:59:56;5.57;;;2.80;;
37341;SDS011;58643;49.052;8.518;2023-01-28T01:02:22;6.00;;;3.10;;
37341;SDS011;58643;49.052;8.518;2023-01-28T01:04:47;4.95;;;2.60;;
37341;SDS011;58643;49.052;8.518;2023-01-28T01:07:26;3.97;;;2.72;;
37341;SDS011;58643;49.052;8.518;2023-01-28T01:09:58;5.18;;;2.70;;
37341;SDS011;58643;49.052;8.518;2023-01-28T01:12:25;5.63;;;3.13;;
37341;SDS011;58643;49.052;8.518;2023-01-28T01:14:51;4.60;;;2.60;;
37341;SDS011;58643;49.052;8.518;2023-01-28T01:17:17;4.57;;;2.72;;
37341;SDS011;58643;49.052;8.518;2023-01-28T01:19:43;5.40;;;2.88;;
37341;SDS011;58643;49.052;8.518;2023-01-28T01:22:08;8.35;;;3.20;;
37341;SDS011;58643;49.052;8.518;2023-01-28T01:24:34;4.93;;;2.92;;
37341;SDS011;58643;49.052;8.518;2023-01-28T01:26:59;5.63;;;2.90;;
37341;SDS011;58643;49.052;8.518;2023-01-28T01:29:25;6.55;;;2.67;;
37341;SDS011;58643;49.052;8.518;2023-01-28T01:31:50;4.80;;;2.85;;
37341;SDS011;58643;49.052;8.518;2023-01-28T01:34:16;5.15;;;2.92;;
37341;SDS011;58643;49.052;8.518;2023-01-28T01:36:42;8.02;;;3.30;;
37341;SDS011;58643;49.052;8.518;2023-01-28T01:39:10;5.95;;;3.05;;
37341;SDS011;58643;49.052;8.518;2023-01-28T01:41:37;6.90;;;3.03;;
37341;SDS011;58643;49.052;8.518;2023-01-28T01:44:03;5.63;;;3.30;;
37341;SDS011;58643;49.052;8.518;2023-01-28T01:49:14;5.68;;;3.13;;
37341;SDS011;58643;49.052;8.518;2023-01-28T01:51:50;5.93;;;3.30;;
37341;SDS011;58643;49.052;8.518;2023-01-28T01:54:20;6.53;;;3.17;;
37341;SDS011;58643;49.052;8.518;2023-01-28T01:56:49;4.95;;;2.53;;
37341;SDS011;58643;49.052;8.518;2023-01-28T01:59:18;7.22;;;3.40;;
37341;SDS011;58643;49.052;8.518;2023-01-28T02:01:49;7.07;;;3.10;;
37341;SDS011;58643;49.052;8.518;2023-01-28T02:04:24;5.65;;;2.97;;
37341;SDS011;58643;49.052;8.518;2023-01-28T02:06:52;6.80;;;3.20;;
37341;SDS011;58643;49.052;8.518;2023-01-28T02:11:53;7.18;;;2.90;;
37341;SDS011;58643;49.052;8.518;2023-01-28T02:14:26;6.78;;;3.53;;
37341;SDS011;58643;49.052;8.518;2023-01-28T02:16:55;6.80;;;3.88;;
37341;SDS011;58643;49.052;8.518;2023-01-28T02:19:21;6.30;;;3.58;;
37341;SDS011;58643;49.052;8.518;2023-01-28T02:30:14;7.60;;;3.75;;
37341;SDS011;58643;49.052;8.518;2023-01-28T02:32:53;5.65;;;3.47;;
37341;SDS011;58643;49.052;8.518;2023-01-28T02:38:00;7.50;;;4.20;;
37341;SDS011;58643;49.052;8.518;2023-01-28T02:40:41;7.25;;;3.75;;
37341;SDS011;58643;49.052;8.518;2023-01-28T02:46:01;8.15;;;4.10;;
37341;SDS011;58643;49.052;8.518;2023-01-28T02:49:13;11.38;;;5.07;;
37341;SDS011;58643;49.052;8.518;2023-01-28T02:57:15;8.80;;;4.55;;
37341;SDS011;58643;49.052;8.518;2023-01-28T02:59:48;8.25;;;4.43;;
37341;SDS011;58643;49.052;8.518;2023-01-28T03:05:28;6.88;;;4.03;;
37341;SDS011;58643;49.052;8.518;2023-01-28T03:07:59;7.78;;;4.05;;
37341;SDS011;58643;49.052;8.518;2023-01-28T03:10:45;6.43;;;3.95;;
37341;SDS011;58643;49.052;8.518;2023-01-28T03:13:29;7.25;;;3.58;;
37341;SDS011;58643;49.052;8.518;2023-01-28T03:16:13;6.30;;;4.18;;
37341;SDS011;58643;49.052;8.518;2023-01-28T03:18:57;7.65;;;3.55;;
37341;SDS011;58643;49.052;8.518;2023-01-28T03:21:42;6.32;;;3.67;;
37341;SDS011;58643;49.052;8.518;2023-01-28T03:24:29;5.75;;;3.60;;
37341;SDS011;58643;49.052;8.518;2023-01-28T03:27:20;4.85;;;3.42;;
37341;SDS011;58643;49.052;8.518;2023-01-28T03:30:10;7.65;;;4.18;;
37341;SDS011;58643;49.052;8.518;2023-01-28T03:32:58;6.72;;;4.07;;
37341;SDS011;58643;49.052;8.518;2023-01-28T03:35:43;6.50;;;3.60;;
37341;SDS011;58643;49.052;8.518;2023-01-28T03:38:28;6.40;;;3.83;;
37341;SDS011;58643;49.052;8.518;2023-01-28T03:41:01;7.53;;;4.40;;
37341;SDS011;58643;49.052;8.518;2023-01-28T03:43:28;6.45;;;3.95;;
37341;SDS011;58643;49.052;8.518;2023-01-28T03:45:55;6.97;;;3.92;;
37341;SDS011;58643;49.052;8.518;2023-01-28T03:48:24;6.80;;;4.05;;
37341;SDS011;58643;49.052;8.518;2023-01-28T03:50:51;5.63;;;4.28;;
37341;SDS011;58643;49.052;8.518;2023-01-28T03:53:19;7.35;;;4.38;;
37341;SDS011;58643;49.052;8.518;2023-01-28T03:55:46;6.20;;;4.10;;
37341;SDS011;58643;49.052;8.518;2023-01-28T03:58:13;9.25;;;4.50;;
37341;SDS011;58643;49.052;8.518;2023-01-28T04:00:39;9.45;;;4.13;;
37341;SDS011;58643;49.052;8.518;2023-01-28T04:03:06;7.32;;;4.50;;
37341;SDS011;58643;49.052;8.518;2023-01-28T04:05:42;7.75;;;4.68;;
37341;SDS011;58643;49.052;8.518;2023-01-28T04:08:08;7.88;;;4.68;;
37341;SDS011;58643;49.052;8.518;2023-01-28T04:10:35;6.25;;;4.13;;
37341;SDS011;58643;49.052;8.518;2023-01-28T04:13:02;9.60;;;5.05;;
37341;SDS011;58643;49.052;8.518;2023-01-28T04:15:28;6.65;;;4.25;;
37341;SDS011;58643;49.052;8.518;2023-01-28T04:17:54;7.70;;;4.65;;
37341;SDS011;58643;49.052;8.518;2023-01-28T04:20:20;7.18;;;4.88;;
37341;SDS011;58643;49.052;8.518;2023-01-28T04:22:46;6.53;;;4.68;;
37341;SDS011;58643;49.052;8.518;2023-01-28T04:25:11;8.05;;;5.00;;
37341;SDS011;58643;49.052;8.518;2023-01-28T04:27:37;7.32;;;4.88;;
37341;SDS011;58643;49.052;8.518;2023-01-28T04:30:03;6.90;;;4.55;;
37341;SDS011;58643;49.052;8.518;2023-01-28T04:32:29;9.63;;;4.75;;
37341;SDS011;58643;49.052;8.518;2023-01-28T04:34:54;9.90;;;5.15;;
37341;SDS011;58643;49.052;8.518;2023-01-28T04:37:20;6.72;;;4.68;;
37341;SDS011;58643;49.052;8.518;2023-01-28T04:39:45;7.85;;;5.10;;
37341;SDS011;58643;49.052;8.518;2023-01-28T04:42:11;6.25;;;4.53;;
37341;SDS011;58643;49.052;8.518;2023-01-28T04:44:36;7.78;;;5.28;;
37341;SDS011;58643;49.052;8.518;2023-01-28T04:47:02;8.65;;;5.25;;
37341;SDS011;58643;49.052;8.518;2023-01-28T04:49:28;8.50;;;5.05;;
37341;SDS011;58643;49.052;8.518;2023-01-28T04:51:53;8.85;;;5.10;;
37341;SDS011;58643;49.052;8.518;2023-01-28T04:54:19;9.02;;;5.70;;
37341;SDS011;58643;49.052;8.518;2023-01-28T04:56:44;8.48;;;5.25;;
37341;SDS011;58643;49.052;8.518;2023-01-28T04:59:10;7.43;;;5.35;;
37341;SDS011;58643;49.052;8.518;2023-01-28T05:01:35;7.93;;;5.40;;
37341;SDS011;58643;49.052;8.518;2023-01-28T05:04:01;10.75;;;5.82;;
37341;SDS011;58643;49.052;8.518;2023-01-28T05:06:29;9.95;;;5.80;;
37341;SDS011;58643;49.052;8.518;2023-01-28T05:08:56;10.85;;;6.63;;
37341;SDS011;58643;49.052;8.518;2023-01-28T05:11:22;11.00;;;7.03;;
37341;SDS011;58643;49.052;8.518;2023-01-28T05:13:48;11.20;;;7.25;;
37341;SDS011;58643;49.052;8.518;2023-01-28T05:16:14;12.32;;;7.32;;
37341;SDS011;58643;49.052;8.518;2023-01-28T05:18:39;11.63;;;7.60;;
37341;SDS011;58643;49.052;8.518;2023-01-28T05:21:05;12.68;;;7.60;;
37341;SDS011;58643;49.052;8.518;2023-01-28T05:23:30;12.48;;;7.78;;
37341;SDS011;58643;49.052;8.518;2023-01-28T05:25:56;11.43;;;7.65;;
37341;SDS011;58643;49.052;8.518;2023-01-28T05:28:21;13.15;;;8.20;;
37341;SDS011;58643;49.052;8.518;2023-01-28T05:30:47;11.52;;;8.15;;
37341;SDS011;58643;49.052;8.518;2023-01-28T05:33:13;11.32;;;7.88;;
37341;SDS011;58643;49.052;8.518;2023-01-28T05:35:38;11.93;;;8.15;;
37341;SDS011;58643;49.052;8.518;2023-01-28T05:38:04;11.38;;;7.55;;
37341;SDS011;58643;49.052;8.518;2023-01-28T05:40:30;11.80;;;7.90;;
37341;SDS011;58643;49.052;8.518;2023-01-28T05:42:55;11.05;;;7.55;;
37341;SDS011;58643;49.052;8.518;2023-01-28T05:45:21;13.60;;;7.82;;
37341;SDS011;58643;49.052;8.518;2023-01-28T05:47:47;11.23;;;7.10;;
37341;SDS011;58643;49.052;8.518;2023-01-28T05:50:12;11.25;;;7.28;;
37341;SDS011;58643;49.052;8.518;2023-01-28T05:52:38;10.52;;;7.05;;
37341;SDS011;58643;49.052;8.518;2023-01-28T05:55:04;10.55;;;6.60;;
37341;SDS011;58643;49.052;8.518;2023-01-28T05:57:30;9.75;;;6.88;;
37341;SDS011;58643;49.052;8.518;2023-01-28T05:59:56;10.68;;;6.85;;
37341;SDS011;58643;49.052;8.518;2023-01-28T06:02:22;8.57;;;6.45;;
37341;SDS011;58643;49.052;8.518;2023-01-28T06:04:47;9.88;;;6.65;;
37341;SDS011;58643;49.052;8.518;2023-01-28T06:07:13;10.40;;;6.07;;
37341;SDS011;58643;49.052;8.518;2023-01-28T06:09:43;11.02;;;6.07;;
37341;SDS011;58643;49.052;8.518;2023-01-28T06:12:09;9.63;;;6.10;;
37341;SDS011;58643;49.052;8.518;2023-01-28T06:14:34;10.00;;;5.93;;
37341;SDS011;58643;49.052;8.518;2023-01-28T06:17:00;8.32;;;5.43;;
37341;SDS011;58643;49.052;8.518;2023-01-28T06:19:25;9.00;;;5.75;;
37341;SDS011;58643;49.052;8.518;2023-01-28T06:21:51;9.75;;;6.07;;
37341;SDS011;58643;49.052;8.518;2023-01-28T06:24:17;10.75;;;6.00;;
37341;SDS011;58643;49.052;8.518;2023-01-28T06:26:43;8.90;;;5.57;;
37341;SDS011;58643;49.052;8.518;2023-01-28T06:29:08;8.68;;;5.32;;
37341;SDS011;58643;49.052;8.518;2023-01-28T06:31:34;10.20;;;6.20;;
37341;SDS011;58643;49.052;8.518;2023-01-28T06:34:00;9.82;;;6.07;;
37341;SDS011;58643;49.052;8.518;2023-01-28T06:36:25;8.80;;;5.18;;
37341;SDS011;58643;49.052;8.518;2023-01-28T06:38:51;8.43;;;5.47;;
37341;SDS011;58643;49.052;8.518;2023-01-28T06:41:17;6.82;;;4.47;;
37341;SDS011;58643;49.052;8.518;2023-01-28T06:43:42;7.43;;;4.80;;
37341;SDS011;58643;49.052;8.518;2023-01-28T06:46:08;6.93;;;4.30;;
37341;SDS011;58643;49.052;8.518;2023-01-28T06:48:34;7.15;;;4.00;;
37341;SDS011;58643;49.052;8.518;2023-01-28T06:50:59;7.13;;;4.10;;
37341;SDS011;58643;49.052;8.518;2023-01-28T06:53:25;7.90;;;4.65;;
37341;SDS011;58643;49.052;8.518;2023-01-28T06:55:50;7.65;;;4.70;;
37341;SDS011;58643;49.052;8.518;2023-01-28T06:58:16;7.45;;;4.50;;
37341;SDS011;58643;49.052;8.518;2023-01-28T07:00:42;8.73;;;5.40;;
37341;SDS011;58643;49.052;8.518;2023-01-28T07:03:08;8.05;;;4.93;;
37341;SDS011;58643;49.052;8.518;2023-01-28T07:05:33;7.82;;;4.47;;
37341;SDS011;58643;49.052;8.518;2023-01-28T07:07:59;9.32;;;4.50;;
37341;SDS011;58643;49.052;8.518;2023-01-28T07:10:26;7.97;;;4.72;;
37341;SDS011;58643;49.052;8.518;2023-01-28T07:12:52;8.55;;;5.28;;
37341;SDS011;58643;49.052;8.518;2023-01-28T07:15:17;8.52;;;5.47;;
37341;SDS011;58643;49.052;8.518;2023-01-28T07:17:43;9.20;;;4.82;;
37341;SDS011;58643;49.052;8.518;2023-01-28T07:20:10;8.68;;;4.80;;
37341;SDS011;58643;49.052;8.518;2023-01-28T07:22:37;8.45;;;5.35;;
37341;SDS011;58643;49.052;8.518;2023-01-28T07:25:05;9.07;;;5.10;;
37341;SDS011;58643;49.052;8.518;2023-01-28T07:27:31;9.50;;;5.40;;
37341;SDS011;58643;49.052;8.518;2023-01-28T07:29:57;9.65;;;5.40;;
37341;SDS011;58643;49.052;8.518;2023-01-28T07:32:23;8.10;;;4.97;;
37341;SDS011;58643;49.052;8.518;2023-01-28T07:34:50;8.32;;;5.10;;
37341;SDS011;58643;49.052;8.518;2023-01-28T07:37:16;10.98;;;5.05;;
37341;SDS011;58643;49.052;8.518;2023-01-28T07:39:42;9.23;;;5.57;;
37341;SDS011;58643;49.052;8.518;2023-01-28T07:42:07;9.50;;;5.78;;
37341;SDS011;58643;49.052;8.518;2023-01-28T07:44:33;9.60;;;5.38;;
37341;SDS011;58643;49.052;8.518;2023-01-28T07:47:00;10.32;;;5.97;;
37341;SDS011;58643;49.052;8.518;2023-01-28T07:49:26;9.27;;;5.88;;
37341;SDS011;58643;49.052;8.518;2023-01-28T07:51:52;10.10;;;6.30;;
37341;SDS011;58643;49.052;8.518;2023-01-28T07:54:18;9.35;;;6.15;;
37341;SDS011;58643;49.052;8.518;2023-01-28T07:56:43;10.15;;;5.95;;
37341;SDS011;58643;49.052;8.518;2023-01-28T07:59:09;10.35;;;6.20;;
37341;SDS011;58643;49.052;8.518;2023-01-28T08:01:35;9.90;;;6.45;;
37341;SDS011;58643;49.052;8.518;2023-01-28T08:04:00;12.10;;;6.53;;
37341;SDS011;58643;49.052;8.518;2023-01-28T08:06:29;9.73;;;5.90;;
37341;SDS011;58643;49.052;8.518;2023-01-28T08:08:55;9.95;;;6.20;;
37341;SDS011;58643;49.052;8.518;2023-01-28T08:11:21;9.45;;;6.10;;
37341;SDS011;58643;49.052;8.518;2023-01-28T08:13:47;10.75;;;6.25;;
37341;SDS011;58643;49.052;8.518;2023-01-28T08:16:13;11.73;;;6.55;;
37341;SDS011;58643;49.052;8.518;2023-01-28T08:18:38;11.30;;;6.90;;
37341;SDS011;58643;49.052;8.518;2023-01-28T08:21:04;9.57;;;5.63;;
37341;SDS011;58643;49.052;8.518;2023-01-28T08:23:29;9.32;;;5.85;;
37341;SDS011;58643;49.052;8.518;2023-01-28T08:25:58;10.17;;;6.17;;
37341;SDS011;58643;49.052;8.518;2023-01-28T08:28:24;10.27;;;6.15;;
37341;SDS011;58643;49.052;8.518;2023-01-28T08:30:50;11.38;;;6.85;;
37341;SDS011;58643;49.052;8.518;2023-01-28T08:33:16;11.18;;;6.70;;
37341;SDS011;58643;49.052;8.518;2023-01-28T08:35:42;8.43;;;5.43;;
37341;SDS011;58643;49.052;8.518;2023-01-28T08:38:09;11.35;;;6.35;;
37341;SDS011;58643;49.052;8.518;2023-01-28T08:40:42;10.02;;;6.28;;
37341;SDS011;58643;49.052;8.518;2023-01-28T08:43:07;11.80;;;6.53;;
37341;SDS011;58643;49.052;8.518;2023-01-28T08:45:33;10.52;;;6.30;;
37341;SDS011;58643;49.052;8.518;2023-01-28T08:48:02;10.23;;;6.07;;
37341;SDS011;58643;49.052;8.518;2023-01-28T08:50:31;8.57;;;5.47;;
37341;SDS011;58643;49.052;8.518;2023-01-28T08:53:04;10.77;;;6.22;;
37341;SDS011;58643;49.052;8.518;2023-01-28T08:55:36;10.35;;;6.18;;
37341;SDS011;58643;49.052;8.518;2023-01-28T08:58:03;11.40;;;6.60;;
37341;SDS011;58643;49.052;8.518;2023-01-28T09:00:29;10.35;;;6.03;;
37341;SDS011;58643;49.052;8.518;2023-01-28T09:02:55;9.82;;;5.97;;
37341;SDS011;58643;49.052;8.518;2023-01-28T09:05:21;10.30;;;6.32;;
37341;SDS011;58643;49.052;8.518;2023-01-28T09:07:46;11.18;;;6.57;;
37341;SDS011;58643;49.052;8.518;2023-01-28T09:10:12;12.20;;;6.82;;
37341;SDS011;58643;49.052;8.518;2023-01-28T09:12:38;9.85;;;6.43;;
37341;SDS011;58643;49.052;8.518;2023-01-28T09:15:04;12.85;;;6.97;;
37341;SDS011;58643;49.052;8.518;2023-01-28T09:17:30;12.27;;;7.38;;
37341;SDS011;58643;49.052;8.518;2023-01-28T09:19:56;10.77;;;6.80;;
37341;SDS011;58643;49.052;8.518;2023-01-28T09:22:21;10.70;;;6.40;;
37341;SDS011;58643;49.052;8.518;2023-01-28T09:24:47;11.52;;;6.95;;
37341;SDS011;58643;49.052;8.518;2023-01-28T09:27:13;13.82;;;7.93;;
37341;SDS011;58643;49.052;8.518;2023-01-28T09:29:38;15.15;;;8.48;;
37341;SDS011;58643;49.052;8.518;2023-01-28T09:32:04;12.23;;;7.72;;
37341;SDS011;58643;49.052;8.518;2023-01-28T09:34:34;12.30;;;7.13;;
37341;SDS011;58643;49.052;8.518;2023-01-28T09:37:00;11.82;;;6.72;;
37341;SDS011;58643;49.052;8.518;2023-01-28T09:39:25;11.13;;;6.55;;
37341;SDS011;58643;49.052;8.518;2023-01-28T09:47:13;13.63;;;6.57;;
37341;SDS011;58643;49.052;8.518;2023-01-28T09:49:47;11.83;;;6.73;;
37341;SDS011;58643;49.052;8.518;2023-01-28T09:52:16;12.52;;;6.40;;
37341;SDS011;58643;49.052;8.518;2023-01-28T09:54:45;12.18;;;6.95;;
37341;SDS011;58643;49.052;8.518;2023-01-28T09:59:46;11.30;;;6.65;;
37341;SDS011;58643;49.052;8.518;2023-01-28T10:07:43;11.27;;;6.45;;
37341;SDS011;58643;49.052;8.518;2023-01-28T10:10:19;9.02;;;5.70;;
37341;SDS011;58643;49.052;8.518;2023-01-28T10:13:00;8.43;;;5.38;;
37341;SDS011;58643;49.052;8.518;2023-01-28T10:18:14;11.15;;;7.03;;
37341;SDS011;58643;49.052;8.518;2023-01-28T10:20:44;8.32;;;5.55;;
37341;SDS011;58643;49.052;8.518;2023-01-28T10:26:33;15.55;;;7.20;;
37341;SDS011;58643;49.052;8.518;2023-01-28T10:29:05;21.17;;;8.13;;
37341;SDS011;58643;49.052;8.518;2023-01-28T10:31:40;10.38;;;5.78;;
37341;SDS011;58643;49.052;8.518;2023-01-28T10:34:16;12.05;;;5.55;;
37341;SDS011;58643;49.052;8.518;2023-01-28T10:36:41;9.98;;;6.20;;
37341;SDS011;58643;49.052;8.518;2023-01-28T10:39:08;10.25;;;5.95;;
37341;SDS011;58643;49.052;8.518;2023-01-28T10:41:37;11.32;;;6.47;;
37341;SDS011;58643;49.052;8.518;2023-01-28T10:44:04;10.77;;;6.18;;
37341;SDS011;58643;49.052;8.518;2023-01-28T10:46:31;11.65;;;6.07;;
37341;SDS011;58643;49.052;8.518;2023-01-28T10:49:09;8.65;;;5.22;;
37341;SDS011;58643;49.052;8.518;2023-01-28T10:51:40;10.32;;;5.35;;
37341;SDS011;58643;49.052;8.518;2023-01-28T10:54:39;11.70;;;6.43;;
37341;SDS011;58643;49.052;8.518;2023-01-28T10:56:59;11.48;;;5.75;;
37341;SDS011;58643;49.052;8.518;2023-01-28T10:59:28;7.60;;;5.03;;
37341;SDS011;58643;49.052;8.518;2023-01-28T11:01:56;9.55;;;6.05;;
37341;SDS011;58643;49.052;8.518;2023-01-28T11:04:26;11.00;;;5.80;;
37341;SDS011;58643;49.052;8.518;2023-01-28T11:07:00;11.05;;;6.28;;
37341;SDS011;58643;49.052;8.518;2023-01-28T11:09:28;11.45;;;6.55;;
37341;SDS011;58643;49.052;8.518;2023-01-28T11:12:09;9.15;;;5.55;;
37341;SDS011;58643;49.052;8.518;2023-01-28T11:14:36;9.95;;;5.78;;
37341;SDS011;58643;49.052;8.518;2023-01-28T11:17:02;8.73;;;5.80;;
37341;SDS011;58643;49.052;8.518;2023-01-28T11:19:30;11.52;;;6.22;;
37341;SDS011;58643;49.052;8.518;2023-01-28T11:21:59;9.35;;;5.88;;
37341;SDS011;58643;49.052;8.518;2023-01-28T11:24:27;9.38;;;6.10;;
37341;SDS011;58643;49.052;8.518;2023-01-28T11:26:56;10.98;;;6.55;;
37341;SDS011;58643;49.052;8.518;2023-01-28T11:29:32;10.48;;;5.78;;
37341;SDS011;58643;49.052;8.518;2023-01-28T11:32:02;9.07;;;5.95;;
37341;SDS011;58643;49.052;8.518;2023-01-28T11:34:29;8.13;;;5.13;;
37341;SDS011;58643;49.052;8.518;2023-01-28T11:37:08;8.75;;;5.13;;
37341;SDS011;58643;49.052;8.518;2023-01-28T11:39:38;10.80;;;5.85;;
37341;SDS011;58643;49.052;8.518;2023-01-28T11:42:10;7.85;;;4.82;;
37341;SDS011;58643;49.052;8.518;2023-01-28T11:44:41;7.90;;;4.93;;
37341;SDS011;58643;49.052;8.518;2023-01-28T11:47:11;7.82;;;5.05;;
37341;SDS011;58643;49.052;8.518;2023-01-28T11:55:18;11.55;;;5.50;;
37341;SDS011;58643;49.052;8.518;2023-01-28T12:00:34;9.82;;;5.07;;
37341;SDS011;58643;49.052;8.518;2023-01-28T12:03:31;8.55;;;5.05;;
37341;SDS011;58643;49.052;8.518;2023-01-28T12:11:47;8.40;;;4.75;;
37341;SDS011;58643;49.052;8.518;2023-01-28T12:17:36;9.32;;;5.20;;
37341;SDS011;58643;49.052;8.518;2023-01-28T12:20:17;7.35;;;4.38;;
37341;SDS011;58643;49.052;8.518;2023-01-28T12:25:49;9.50;;;5.22;;
37341;SDS011;58643;49.052;8.518;2023-01-28T12:28:39;7.18;;;4.38;;
37341;SDS011;58643;49.052;8.518;2023-01-28T12:37:09;8.73;;;4.57;;
37341;SDS011;58643;49.052;8.518;2023-01-28T12:42:19;8.20;;;4.93;;
37341;SDS011;58643;49.052;8.518;2023-01-28T12:45:16;6.72;;;4.20;;
37341;SDS011;58643;49.052;8.518;2023-01-28T12:47:50;7.05;;;4.53;;
37341;SDS011;58643;49.052;8.518;2023-01-28T12:50:23;7.15;;;5.00;;
37341;SDS011;58643;49.052;8.518;2023-01-28T12:52:57;8.23;;;5.10;;
37341;SDS011;58643;49.052;8.518;2023-01-28T12:55:40;8.07;;;4.65;;
37341;SDS011;58643;49.052;8.518;2023-01-28T12:58:15;7.68;;;4.47;;
37341;SDS011;58643;49.052;8.518;2023-01-28T13:01:09;6.33;;;4.17;;
37341;SDS011;58643;49.052;8.518;2023-01-28T13:03:41;8.25;;;4.63;;
37341;SDS011;58643;49.052;8.518;2023-01-28T13:06:14;7.00;;;4.63;;
37341;SDS011;58643;49.052;8.518;2023-01-28T13:08:47;8.68;;;4.57;;
37341;SDS011;58643;49.052;8.518;2023-01-28T13:11:14;7.72;;;4.40;;
37341;SDS011;58643;49.052;8.518;2023-01-28T13:13:42;8.85;;;5.13;;
37341;SDS011;58643;49.052;8.518;2023-01-28T13:16:10;6.82;;;4.30;;
37341;SDS011;58643;49.052;8.518;2023-01-28T13:23:45;8.07;;;4.18;;
37341;SDS011;58643;49.052;8.518;2023-01-28T13:28:48;10.90;;;5.78;;
37341;SDS011;58643;49.052;8.518;2023-01-28T13:31:16;6.03;;;3.75;;
37341;SDS011;58643;49.052;8.518;2023-01-28T13:34:02;7.88;;;4.13;;
37341;SDS011;58643;49.052;8.518;2023-01-28T13:36:36;8.40;;;4.32;;
37341;SDS011;58643;49.052;8.518;2023-01-28T13:49:40;10.98;;;4.65;;
37341;SDS011;58643;49.052;8.518;2023-01-28T13:52:13;6.10;;;3.65;;
37341;SDS011;58643;49.052;8.518;2023-01-28T13:58:15;7.93;;;4.55;;
37341;SDS011;58643;49.052;8.518;2023-01-28T14:16:51;6.88;;;3.75;;
37341;SDS011;58643;49.052;8.518;2023-01-28T14:19:25;6.32;;;3.63;;
37341;SDS011;58643;49.052;8.518;2023-01-28T14:21:55;5.43;;;3.65;;
37341;SDS011;58643;49.052;8.518;2023-01-28T14:24:21;9.25;;;4.68;;
37341;SDS011;58643;49.052;8.518;2023-01-28T14:27:01;6.13;;;3.97;;
37341;SDS011;58643;49.052;8.518;2023-01-28T14:32:18;7.50;;;4.28;;
37341;SDS011;58643;49.052;8.518;2023-01-28T14:34:46;9.40;;;5.13;;
37341;SDS011;58643;49.052;8.518;2023-01-28T14:37:13;12.40;;;6.55;;
37341;SDS011;58643;49.052;8.518;2023-01-28T14:39:47;15.00;;;6.72;;
37341;SDS011;58643;49.052;8.518;2023-01-28T14:42:21;8.50;;;4.65;;
37341;SDS011;58643;49.052;8.518;2023-01-28T14:45:03;9.73;;;4.20;;
37341;SDS011;58643;49.052;8.518;2023-01-28T14:50:29;9.38;;;5.00;;
37341;SDS011;58643;49.052;8.518;2023-01-28T14:53:20;7.28;;;4.65;;
37341;SDS011;58643;49.052;8.518;2023-01-28T14:58:36;8.15;;;4.13;;
37341;SDS011;58643;49.052;8.518;2023-01-28T15:01:23;10.38;;;4.32;;
37341;SDS011;58643;49.052;8.518;2023-01-28T15:03:50;6.55;;;4.28;;
37341;SDS011;58643;49.052;8.518;2023-01-28T15:06:21;7.82;;;4.20;;
37341;SDS011;58643;49.052;8.518;2023-01-28T15:08:49;9.65;;;4.68;;
37341;SDS011;58643;49.052;8.518;2023-01-28T15:11:17;11.32;;;4.88;;
37341;SDS011;58643;49.052;8.518;2023-01-28T15:13:47;14.13;;;6.30;;
37341;SDS011;58643;49.052;8.518;2023-01-28T15:16:25;19.58;;;7.78;;
37341;SDS011;58643;49.052;8.518;2023-01-28T15:18:56;27.20;;;9.60;;
37341;SDS011;58643;49.052;8.518;2023-01-28T15:21:24;14.23;;;5.63;;
37341;SDS011;58643;49.052;8.518;2023-01-28T15:23:54;6.97;;;4.50;;
37341;SDS011;58643;49.052;8.518;2023-01-28T15:26:25;11.13;;;4.70;;
37341;SDS011;58643;49.052;8.518;2023-01-28T15:28:53;6.97;;;4.00;;
37341;SDS011;58643;49.052;8.518;2023-01-28T15:34:16;7.38;;;3.63;;
37341;SDS011;58643;49.052;8.518;2023-01-28T15:36:42;8.20;;;3.65;;
37341;SDS011;58643;49.052;8.518;2023-01-28T15:39:27;7.05;;;3.45;;
37341;SDS011;58643;49.052;8.518;2023-01-28T15:42:03;8.63;;;3.63;;
37341;SDS011;58643;49.052;8.518;2023-01-28T15:44:32;7.78;;;4.30;;
37341;SDS011;58643;49.052;8.518;2023-01-28T15:47:03;8.15;;;3.72;;
37341;SDS011;58643;49.052;8.518;2023-01-28T15:49:47;5.88;;;3.60;;
37341;SDS011;58643;49.052;8.518;2023-01-28T15:52:17;6.80;;;3.85;;
37341;SDS011;58643;49.052;8.518;2023-01-28T15:54:43;7.75;;;4.10;;
37341;SDS011;58643;49.052;8.518;2023-01-28T15:57:34;7.28;;;4.18;;
37341;SDS011;58643;49.052;8.518;2023-01-28T16:02:31;7.88;;;3.55;;
37341;SDS011;58643;49.052;8.518;2023-01-28T16:04:57;8.15;;;3.97;;
37341;SDS011;58643;49.052;8.518;2023-01-28T16:07:25;5.50;;;3.40;;
37341;SDS011;58643;49.052;8.518;2023-01-28T16:09:53;9.43;;;3.80;;
37341;SDS011;58643;49.052;8.518;2023-01-28T16:12:21;12.32;;;5.28;;
37341;SDS011;58643;49.052;8.518;2023-01-28T16:14:48;6.38;;;3.70;;
37341;SDS011;58643;49.052;8.518;2023-01-28T16:17:18;6.63;;;3.75;;
37341;SDS011;58643;49.052;8.518;2023-01-28T16:19:47;9.07;;;4.33;;
37341;SDS011;58643;49.052;8.518;2023-01-28T16:22:19;15.02;;;7.03;;
37341;SDS011;58643;49.052;8.518;2023-01-28T16:24:56;10.70;;;5.75;;
37341;SDS011;58643;49.052;8.518;2023-01-28T16:27:23;7.75;;;5.13;;
37341;SDS011;58643;49.052;8.518;2023-01-28T16:29:50;7.88;;;5.45;;
37341;SDS011;58643;49.052;8.518;2023-01-28T16:35:00;8.38;;;5.13;;
37341;SDS011;58643;49.052;8.518;2023-01-28T16:37:27;9.27;;;4.68;;
37341;SDS011;58643;49.052;8.518;2023-01-28T16:39:52;6.80;;;4.43;;
37341;SDS011;58643;49.052;8.518;2023-01-28T16:42:18;7.30;;;4.40;;
37341;SDS011;58643;49.052;8.518;2023-01-28T16:44:44;6.93;;;4.45;;
37341;SDS011;58643;49.052;8.518;2023-01-28T16:47:10;7.25;;;4.05;;
37341;SDS011;58643;49.052;8.518;2023-01-28T16:49:36;6.63;;;4.03;;
37341;SDS011;58643;49.052;8.518;2023-01-28T16:52:02;8.05;;;4.35;;
37341;SDS011;58643;49.052;8.518;2023-01-28T16:54:28;9.55;;;4.18;;
37341;SDS011;58643;49.052;8.518;2023-01-28T16:56:54;9.38;;;4.43;;
37341;SDS011;58643;49.052;8.518;2023-01-28T16:59:21;8.07;;;4.88;;
37341;SDS011;58643;49.052;8.518;2023-01-28T17:01:47;6.35;;;3.80;;
37341;SDS011;58643;49.052;8.518;2023-01-28T17:04:12;6.43;;;3.90;;
37341;SDS011;58643;49.052;8.518;2023-01-28T17:06:42;6.75;;;4.22;;
37341;SDS011;58643;49.052;8.518;2023-01-28T17:09:09;11.25;;;4.53;;